Time;durP1;ratioP1;P1;durP2;ratioP2;P2;SDS_P1;SDS_P2;PMS_P1;PMS_P2;Temp;Humidity;BMP_temperature;BMP_pressure;BME280_temperature;BME280_humidity;BME280_pressure;Samples;Min_cycle;Max_cycle;Signal;HPM_P1;HPM_P2
2022/10/25 00:00:51;;;;;;;10.80;7.15;;;19.30;96.70;;;;;;4932511;29;20055;-73
2022/10/25 00:03:20;;;;;;;13.63;6.90;;;19.30;96.70;;;;;;4931440;29;20046;-73
2022/10/25 00:05:48;;;;;;;11.25;6.65;;;19.30;96.70;;;;;;4931201;29;20111;-74
2022/10/25 00:08:17;;;;;;;9.30;6.78;;;19.30;96.70;;;;;;4932773;29;20043;-73
2022/10/25 00:10:45;;;;;;;10.52;6.72;;;19.30;96.70;;;;;;4929738;29;20482;-73
2022/10/25 00:13:13;;;;;;;8.18;6.85;;;19.30;96.70;;;;;;4927619;29;20043;-73
2022/10/25 00:15:42;;;;;;;9.55;6.45;;;19.30;96.70;;;;;;4928251;29;20506;-73
2022/10/25 00:18:10;;;;;;;9.35;6.80;;;19.20;96.70;;;;;;4928976;29;20055;-73
2022/10/25 00:20:38;;;;;;;16.30;7.50;;;19.10;96.70;;;;;;4929032;29;20054;-73
2022/10/25 00:23:06;;;;;;;8.18;6.25;;;19.10;96.70;;;;;;4911397;29;21782;-73
2022/10/25 00:25:36;;;;;;;9.68;6.72;;;19.10;96.70;;;;;;4934527;29;20423;-73
2022/10/25 00:28:04;;;;;;;11.65;7.07;;;19.10;96.70;;;;;;4943134;29;20483;-73
2022/10/25 00:30:32;;;;;;;12.43;7.60;;;19.10;96.70;;;;;;4931529;29;20450;-73
2022/10/25 00:33:00;;;;;;;13.13;6.78;;;19.20;96.70;;;;;;4942413;29;20054;-73
2022/10/25 00:35:28;;;;;;;11.02;7.03;;;19.20;96.70;;;;;;4940466;29;20043;-74
2022/10/25 00:37:56;;;;;;;10.80;6.47;;;19.10;96.70;;;;;;4936195;28;20047;-74
2022/10/25 00:40:24;;;;;;;10.50;6.88;;;19.10;96.70;;;;;;4942075;29;20063;-71
2022/10/25 00:42:54;;;;;;;13.23;7.22;;;19.10;96.70;;;;;;4941134;28;20051;-73
2022/10/25 00:45:24;;;;;;;10.25;6.70;;;19.00;96.70;;;;;;4934113;29;20073;-73
2022/10/25 00:47:58;;;;;;;9.85;6.88;;;19.00;96.70;;;;;;4942880;29;20549;-73
2022/10/25 00:50:38;;;;;;;12.15;7.05;;;19.00;96.70;;;;;;4910126;29;20705;-73
2022/10/25 00:53:09;;;;;;;11.57;6.85;;;19.00;96.70;;;;;;4928095;29;20138;-73
2022/10/25 00:55:41;;;;;;;13.10;7.82;;;19.00;96.70;;;;;;4944784;29;20110;-73
2022/10/25 00:58:13;;;;;;;8.80;6.65;;;18.90;96.70;;;;;;4930725;29;20577;-73
2022/10/25 01:00:44;;;;;;;11.60;7.07;;;18.80;96.70;;;;;;4945844;29;20109;-73
2022/10/25 01:03:13;;;;;;;10.00;5.93;;;18.70;96.70;;;;;;4932368;29;20106;-73
2022/10/25 01:05:42;;;;;;;11.45;6.50;;;18.60;96.70;;;;;;4927016;29;20074;-73
2022/10/25 01:08:11;;;;;;;14.40;7.45;;;18.70;96.70;;;;;;4931538;29;20275;-74
2022/10/25 01:10:39;;;;;;;10.18;6.93;;;18.70;96.70;;;;;;4942073;29;20094;-73
2022/10/25 01:13:07;;;;;;;8.80;6.40;;;18.60;96.70;;;;;;4930976;29;20175;-74
2022/10/25 01:15:45;;;;;;;9.43;6.50;;;18.60;96.70;;;;;;4929848;29;20039;-73
2022/10/25 01:18:20;;;;;;;11.68;7.18;;;18.70;96.70;;;;;;4927774;29;20047;-73
2022/10/25 01:21:13;;;;;;;10.20;6.40;;;18.70;96.70;;;;;;4928699;29;20048;-73
2022/10/25 01:24:08;;;;;;;7.88;6.28;;;18.70;96.70;;;;;;4929331;29;20060;-73
2022/10/25 01:27:15;;;;;;;12.80;6.70;;;18.70;96.70;;;;;;4939327;28;20057;-73
2022/10/25 01:30:04;;;;;;;11.68;7.30;;;18.70;96.70;;;;;;4921262;29;20063;-73
2022/10/25 01:33:04;;;;;;;9.80;6.90;;;18.60;96.70;;;;;;4911889;29;20514;-73
2022/10/25 01:35:41;;;;;;;9.38;6.65;;;18.70;96.70;;;;;;4940883;29;20158;-72
2022/10/25 01:38:24;;;;;;;11.68;6.32;;;18.60;96.70;;;;;;4936516;29;20456;-73
2022/10/25 01:41:01;;;;;;;10.02;6.88;;;18.60;96.70;;;;;;4935193;28;20070;-73
2022/10/25 01:43:37;;;;;;;14.07;6.47;;;18.60;96.70;;;;;;4929480;29;20130;-73
2022/10/25 01:46:14;;;;;;;9.85;6.88;;;18.60;96.70;;;;;;4947305;28;20396;-72
2022/10/25 01:48:47;;;;;;;11.25;5.80;;;18.60;96.70;;;;;;4946824;28;20101;-73
2022/10/25 01:51:44;;;;;;;11.52;6.88;;;18.60;96.70;;;;;;4933339;28;20062;-73
2022/10/25 01:54:18;;;;;;;9.05;6.00;;;18.50;96.70;;;;;;4927705;28;20055;-72
2022/10/25 01:56:58;;;;;;;9.60;6.68;;;18.40;96.70;;;;;;4948167;28;20047;-73
2022/10/25 01:59:48;;;;;;;10.55;6.40;;;18.40;96.70;;;;;;4940239;28;20066;-73
2022/10/25 02:02:24;;;;;;;9.40;6.00;;;18.40;96.70;;;;;;4964999;28;20097;-73
2022/10/25 02:05:02;;;;;;;11.60;5.83;;;18.40;96.70;;;;;;4939480;28;20050;-74
2022/10/25 02:07:35;;;;;;;10.50;6.57;;;18.30;96.70;;;;;;4939750;28;20282;-74
2022/10/25 02:10:07;;;;;;;8.30;6.30;;;18.30;96.70;;;;;;4929622;28;20094;-74
2022/10/25 02:12:43;;;;;;;10.35;6.55;;;18.20;96.70;;;;;;4951918;28;20557;-74
2022/10/25 02:15:18;;;;;;;10.20;6.68;;;18.20;96.70;;;;;;4933948;28;20058;-74
2022/10/25 02:17:53;;;;;;;10.43;6.40;;;18.20;96.70;;;;;;4930220;29;20429;-74
2022/10/25 02:20:25;;;;;;;9.23;6.18;;;18.10;96.70;;;;;;4933571;28;20446;-74
2022/10/25 02:22:54;;;;;;;8.95;6.22;;;18.10;96.70;;;;;;4942733;28;20464;-74
2022/10/25 02:25:22;;;;;;;9.90;5.70;;;18.10;96.70;;;;;;4930972;28;20046;-73
2022/10/25 02:27:52;;;;;;;9.02;5.88;;;18.10;96.70;;;;;;4945723;28;20039;-73
2022/10/25 02:30:20;;;;;;;10.02;5.95;;;18.10;96.70;;;;;;4951729;28;20039;-73
2022/10/25 02:32:49;;;;;;;10.13;5.88;;;18.20;96.70;;;;;;4962156;28;20047;-73
2022/10/25 02:35:18;;;;;;;8.27;6.00;;;18.20;96.70;;;;;;4929592;28;20108;-73
2022/10/25 02:37:47;;;;;;;8.82;5.47;;;18.20;96.70;;;;;;4928382;28;20058;-73
2022/10/25 02:40:21;;;;;;;10.10;5.93;;;18.20;96.70;;;;;;4953737;28;20043;-70
2022/10/25 02:42:48;;;;;;;9.70;6.32;;;18.20;96.70;;;;;;4942397;29;20569;-73
2022/10/25 02:45:22;;;;;;;12.93;6.40;;;18.20;96.70;;;;;;4930888;28;20447;-71
2022/10/25 02:47:50;;;;;;;9.52;5.85;;;18.20;96.70;;;;;;4929489;28;20065;-72
2022/10/25 02:50:18;;;;;;;10.07;6.05;;;18.10;96.70;;;;;;4956175;28;20070;-71
2022/10/25 02:52:47;;;;;;;9.88;5.85;;;18.10;96.70;;;;;;4924772;29;20042;-71
2022/10/25 02:55:16;;;;;;;7.65;5.70;;;18.10;96.70;;;;;;4946514;28;20051;-72
2022/10/25 02:57:43;;;;;;;10.43;7.00;;;18.00;96.70;;;;;;4948712;28;20037;-71
2022/10/25 03:00:13;;;;;;;11.10;6.30;;;18.00;96.70;;;;;;4949996;28;20070;-71
2022/10/25 03:02:41;;;;;;;9.18;5.55;;;18.00;96.70;;;;;;4956694;28;20130;-71
2022/10/25 03:05:09;;;;;;;12.40;6.63;;;18.00;96.70;;;;;;4954272;28;20053;-71
2022/10/25 03:07:37;;;;;;;12.57;5.95;;;18.10;96.70;;;;;;4935789;28;20098;-72
2022/10/25 03:10:07;;;;;;;9.77;5.47;;;18.10;96.70;;;;;;4913691;29;20090;-71
2022/10/25 03:12:36;;;;;;;11.68;5.40;;;18.00;96.70;;;;;;4913502;28;20146;-72
2022/10/25 03:15:05;;;;;;;10.45;5.53;;;17.90;96.70;;;;;;4954455;28;20062;-73
2022/10/25 03:17:33;;;;;;;14.82;6.93;;;17.90;96.70;;;;;;4965625;28;20471;-72
2022/10/25 03:20:01;;;;;;;8.32;5.82;;;17.90;96.70;;;;;;4931422;28;20394;-72
2022/10/25 03:22:30;;;;;;;10.13;5.47;;;17.90;96.70;;;;;;4933124;29;20047;-72
2022/10/25 03:24:58;;;;;;;11.00;6.05;;;18.00;96.70;;;;;;4928517;28;20051;-72
2022/10/25 03:27:27;;;;;;;6.43;5.50;;;18.00;96.70;;;;;;4944696;28;20058;-73
2022/10/25 03:29:55;;;;;;;10.88;6.30;;;18.00;96.70;;;;;;4945404;28;20560;-72
2022/10/25 03:32:23;;;;;;;8.32;6.07;;;17.90;96.70;;;;;;4959799;28;20049;-72
2022/10/25 03:34:51;;;;;;;8.80;6.05;;;18.10;96.70;;;;;;4930165;29;20161;-72
2022/10/25 03:37:24;;;;;;;8.55;5.68;;;18.10;96.70;;;;;;4948050;28;20134;-72
2022/10/25 03:39:53;;;;;;;9.15;5.78;;;18.10;96.70;;;;;;4934735;28;20070;-72
2022/10/25 03:42:20;;;;;;;9.00;5.93;;;18.00;96.70;;;;;;4944756;28;20763;-72
2022/10/25 03:44:50;;;;;;;8.10;5.70;;;18.00;96.70;;;;;;4956539;28;20401;-72
2022/10/25 03:47:18;;;;;;;8.35;5.90;;;18.00;96.70;;;;;;4947926;28;20047;-73
2022/10/25 03:49:46;;;;;;;8.75;5.10;;;18.00;96.70;;;;;;4954650;28;20395;-72
2022/10/25 03:52:14;;;;;;;9.10;5.45;;;18.00;96.70;;;;;;4915694;28;20102;-72
2022/10/25 03:54:42;;;;;;;9.25;6.57;;;18.00;96.70;;;;;;4950309;28;20043;-73
2022/10/25 03:57:10;;;;;;;13.13;6.10;;;18.00;96.70;;;;;;4934856;29;20110;-72
2022/10/25 03:59:38;;;;;;;9.45;6.55;;;18.00;96.70;;;;;;4931952;29;20061;-72
2022/10/25 04:02:08;;;;;;;11.35;6.80;;;18.00;96.70;;;;;;4931269;29;20052;-73
2022/10/25 04:04:36;;;;;;;9.85;6.25;;;18.00;96.70;;;;;;4935689;28;20045;-71
2022/10/25 04:07:03;;;;;;;9.70;6.53;;;17.90;96.70;;;;;;4937773;28;20050;-72
2022/10/25 04:09:31;;;;;;;11.10;6.47;;;17.90;96.70;;;;;;4929071;28;20421;-73
2022/10/25 04:12:00;;;;;;;10.82;6.50;;;17.90;96.70;;;;;;4931316;29;20047;-73
2022/10/25 04:14:28;;;;;;;11.20;6.50;;;17.90;96.70;;;;;;4933569;29;20180;-72
2022/10/25 04:16:56;;;;;;;8.13;5.97;;;17.90;96.70;;;;;;4948314;28;20044;-72
2022/10/25 04:19:25;;;;;;;10.65;6.65;;;17.80;96.70;;;;;;4931890;28;20050;-72
2022/10/25 04:21:53;;;;;;;9.70;6.10;;;17.80;96.70;;;;;;4948044;28;20047;-72
2022/10/25 04:24:21;;;;;;;8.13;6.18;;;17.80;96.70;;;;;;4938582;28;20429;-72
2022/10/25 04:26:49;;;;;;;7.78;6.15;;;17.80;96.70;;;;;;4939283;29;20410;-72
2022/10/25 04:29:17;;;;;;;9.38;6.10;;;17.70;96.70;;;;;;4957122;28;20051;-72
2022/10/25 04:31:45;;;;;;;8.63;6.10;;;17.70;96.70;;;;;;4940634;28;20154;-72
2022/10/25 04:34:12;;;;;;;9.32;6.03;;;17.70;96.70;;;;;;4937713;28;20493;-73
2022/10/25 04:36:42;;;;;;;9.23;6.07;;;17.80;96.70;;;;;;4930062;28;20039;-72
2022/10/25 04:39:10;;;;;;;8.48;6.13;;;17.80;96.70;;;;;;4955933;28;20043;-72
2022/10/25 04:41:38;;;;;;;8.60;5.53;;;17.80;96.70;;;;;;4948895;28;20821;-72
2022/10/25 04:44:06;;;;;;;7.28;5.35;;;17.70;96.70;;;;;;4933321;29;20059;-72
2022/10/25 04:46:34;;;;;;;7.60;6.25;;;17.70;96.70;;;;;;4947679;28;20126;-72
2022/10/25 04:49:02;;;;;;;10.43;6.10;;;17.70;96.70;;;;;;4948374;28;20058;-73
2022/10/25 04:51:30;;;;;;;10.73;5.70;;;17.70;96.70;;;;;;4954344;28;20130;-73
2022/10/25 04:54:00;;;;;;;7.72;6.00;;;17.70;96.70;;;;;;4931642;29;20118;-72
2022/10/25 04:56:28;;;;;;;8.40;5.95;;;17.80;96.70;;;;;;4931261;28;20055;-73
2022/10/25 04:58:58;;;;;;;9.90;5.95;;;17.80;96.70;;;;;;4931668;28;20043;-72
2022/10/25 05:01:26;;;;;;;10.20;6.50;;;17.80;96.70;;;;;;4939953;28;20070;-73
2022/10/25 05:03:54;;;;;;;9.95;6.03;;;17.80;96.70;;;;;;4949058;28;20074;-72
2022/10/25 05:06:25;;;;;;;10.45;5.85;;;17.70;96.70;;;;;;4914180;28;20051;-73
2022/10/25 05:08:53;;;;;;;8.48;5.80;;;17.60;96.70;;;;;;4946995;28;20051;-73
2022/10/25 05:11:24;;;;;;;12.20;5.90;;;17.60;96.70;;;;;;4934567;29;20127;-74
2022/10/25 05:13:52;;;;;;;9.50;6.53;;;17.70;96.70;;;;;;4947660;28;20047;-74
2022/10/25 05:16:23;;;;;;;11.13;6.45;;;17.70;96.70;;;;;;4959460;28;20511;-74
2022/10/25 05:18:55;;;;;;;11.30;6.45;;;17.70;96.70;;;;;;4950840;28;20098;-72
2022/10/25 05:21:29;;;;;;;9.90;6.93;;;17.80;96.70;;;;;;4929856;29;20089;-72
2022/10/25 05:23:58;;;;;;;11.63;7.10;;;17.80;96.70;;;;;;4947964;28;20047;-72
2022/10/25 05:26:30;;;;;;;13.27;6.63;;;17.70;96.70;;;;;;4914446;28;20141;-72
2022/10/25 05:28:58;;;;;;;11.25;6.47;;;17.60;96.70;;;;;;4934565;28;20046;-72
2022/10/25 05:31:28;;;;;;;13.55;6.60;;;17.60;96.70;;;;;;4957984;28;20043;-73
2022/10/25 05:33:57;;;;;;;9.45;6.13;;;17.60;96.70;;;;;;4941229;28;20506;-72
2022/10/25 05:36:28;;;;;;;9.30;6.65;;;17.50;96.70;;;;;;4945483;28;20078;-72
2022/10/25 05:38:57;;;;;;;9.90;6.93;;;17.60;96.70;;;;;;4947242;28;20070;-73
2022/10/25 05:41:24;;;;;;;13.40;7.15;;;17.60;96.70;;;;;;4946858;28;20146;-73
2022/10/25 05:43:54;;;;;;;8.68;6.40;;;17.60;96.70;;;;;;4949849;28;20047;-73
2022/10/25 05:46:23;;;;;;;10.85;6.82;;;17.60;96.70;;;;;;4937962;28;20047;-73
2022/10/25 05:48:52;;;;;;;9.70;6.70;;;17.60;96.70;;;;;;4938443;28;20051;-72
2022/10/25 05:51:22;;;;;;;9.60;7.00;;;17.70;96.70;;;;;;4929040;28;20141;-73
2022/10/25 05:54:08;;;;;;;14.90;7.55;;;17.70;96.70;;;;;;4946828;28;20556;-73
2022/10/25 05:56:36;;;;;;;8.68;7.03;;;17.70;96.70;;;;;;4933742;28;20513;-73
2022/10/25 05:59:07;;;;;;;11.73;6.50;;;17.80;96.70;;;;;;4946432;28;20191;-72
2022/10/25 06:01:37;;;;;;;11.30;7.00;;;17.80;96.70;;;;;;4946226;28;20071;-73
2022/10/25 06:04:05;;;;;;;12.80;6.90;;;17.80;96.70;;;;;;4960022;28;20059;-73
2022/10/25 06:06:34;;;;;;;10.43;7.15;;;17.80;96.70;;;;;;4937352;28;20057;-73
2022/10/25 06:09:02;;;;;;;11.65;7.00;;;17.80;96.70;;;;;;4938039;29;20047;-72
2022/10/25 06:11:31;;;;;;;14.35;7.22;;;17.80;96.70;;;;;;4938171;28;20118;-72
2022/10/25 06:13:59;;;;;;;12.55;7.22;;;17.80;96.70;;;;;;4954906;28;20047;-72
2022/10/25 06:16:29;;;;;;;11.75;7.78;;;17.80;96.70;;;;;;4947411;28;20055;-73
2022/10/25 06:19:13;;;;;;;10.57;6.95;;;17.90;96.70;;;;;;4928964;29;20086;-73
2022/10/25 06:21:41;;;;;;;12.20;7.07;;;18.00;96.70;;;;;;4929210;29;20043;-73
2022/10/25 06:24:09;;;;;;;12.70;7.25;;;18.00;96.70;;;;;;4947984;28;20116;-72
2022/10/25 06:26:37;;;;;;;10.98;7.07;;;18.00;96.70;;;;;;4942179;28;20051;-73
2022/10/25 06:29:05;;;;;;;10.02;6.75;;;18.10;96.70;;;;;;4951090;28;20051;-73
2022/10/25 06:31:34;;;;;;;9.18;6.68;;;18.10;96.70;;;;;;4947075;28;20055;-73
2022/10/25 06:34:02;;;;;;;11.77;6.95;;;18.10;96.70;;;;;;4929750;29;20070;-73
2022/10/25 06:36:30;;;;;;;12.07;7.18;;;18.20;96.70;;;;;;4962766;28;20848;-73
2022/10/25 06:38:59;;;;;;;13.88;7.82;;;18.20;96.70;;;;;;4943600;28;20063;-72
2022/10/25 06:41:35;;;;;;;9.68;7.18;;;18.10;96.70;;;;;;4945135;28;20042;-73
2022/10/25 06:44:05;;;;;;;10.27;7.00;;;18.10;96.70;;;;;;4933282;28;20578;-74
2022/10/25 06:46:37;;;;;;;12.48;7.45;;;18.10;96.70;;;;;;4938474;28;20169;-74
2022/10/25 06:49:25;;;;;;;12.70;7.28;;;18.10;96.70;;;;;;4948449;28;20985;-73
2022/10/25 06:51:55;;;;;;;12.27;7.10;;;18.10;96.70;;;;;;4928214;28;20504;-73
2022/10/25 06:54:24;;;;;;;10.85;7.10;;;18.10;96.70;;;;;;4929808;29;20102;-72
2022/10/25 06:56:52;;;;;;;11.02;7.40;;;18.10;96.70;;;;;;4930856;28;20047;-72
2022/10/25 06:59:19;;;;;;;13.63;7.25;;;18.00;96.70;;;;;;4949315;28;20098;-73
2022/10/25 07:01:49;;;;;;;12.73;7.85;;;18.10;96.70;;;;;;4946136;28;20039;-72
2022/10/25 07:04:17;;;;;;;9.68;7.20;;;18.10;96.70;;;;;;4943632;28;20564;-72
2022/10/25 07:06:45;;;;;;;14.40;8.15;;;18.20;96.70;;;;;;4958552;28;20047;-72
2022/10/25 07:09:19;;;;;;;9.68;7.07;;;18.20;96.70;;;;;;4954305;28;20051;-71
2022/10/25 07:11:47;;;;;;;14.25;7.68;;;18.30;96.70;;;;;;4928436;28;20046;-72
2022/10/25 07:14:15;;;;;;;15.35;7.93;;;18.30;96.70;;;;;;4950938;28;20055;-72
2022/10/25 07:16:42;;;;;;;19.27;9.18;;;18.30;96.70;;;;;;4960777;28;20049;-72
2022/10/25 07:19:12;;;;;;;14.85;9.10;;;18.40;96.70;;;;;;4952721;28;20051;-72
2022/10/25 07:21:39;;;;;;;13.32;8.68;;;18.30;96.70;;;;;;4945086;28;20606;-71
2022/10/25 07:24:10;;;;;;;14.02;8.25;;;18.30;96.70;;;;;;4955092;28;20504;-73
2022/10/25 07:26:39;;;;;;;13.57;8.68;;;18.40;96.70;;;;;;4922246;28;20051;-73
2022/10/25 07:29:07;;;;;;;14.68;8.40;;;18.50;96.70;;;;;;4963705;28;20062;-73
2022/10/25 07:31:37;;;;;;;16.80;9.02;;;18.50;96.70;;;;;;4954524;28;20057;-74
2022/10/25 07:34:05;;;;;;;13.35;9.77;;;18.50;96.70;;;;;;4953961;28;20062;-74
2022/10/25 07:36:34;;;;;;;15.68;9.32;;;18.60;96.70;;;;;;4954342;28;20051;-73
2022/10/25 07:39:02;;;;;;;13.48;8.93;;;18.80;96.70;;;;;;4951093;28;20066;-74
2022/10/25 07:41:30;;;;;;;15.73;9.80;;;18.90;96.70;;;;;;4937033;28;20544;-73
2022/10/25 07:43:58;;;;;;;10.65;8.40;;;19.00;96.70;;;;;;4938247;28;20722;-74
2022/10/25 07:46:26;;;;;;;14.07;8.93;;;19.10;96.70;;;;;;4963080;28;20490;-74
2022/10/25 07:48:54;;;;;;;11.38;7.90;;;19.10;96.70;;;;;;4946075;28;20047;-75
2022/10/25 07:51:22;;;;;;;17.17;9.13;;;19.20;96.70;;;;;;4927122;28;20043;-74
2022/10/25 07:53:52;;;;;;;17.75;9.88;;;19.20;96.70;;;;;;4945933;28;20130;-73
2022/10/25 07:56:20;;;;;;;16.00;8.82;;;19.30;96.70;;;;;;4929411;28;20079;-73
2022/10/25 07:58:51;;;;;;;12.60;8.40;;;19.30;96.70;;;;;;4945661;28;20039;-73
2022/10/25 08:01:21;;;;;;;14.50;9.52;;;19.40;96.70;;;;;;4928570;28;20039;-74
2022/10/25 08:03:49;;;;;;;15.02;9.27;;;19.40;96.70;;;;;;4944753;28;20498;-74
2022/10/25 08:06:17;;;;;;;14.65;9.13;;;19.50;96.70;;;;;;4927525;28;20066;-74
2022/10/25 08:08:46;;;;;;;12.30;9.40;;;19.50;96.70;;;;;;4939917;28;20047;-74
2022/10/25 08:11:15;;;;;;;17.23;9.13;;;19.50;96.70;;;;;;4928526;29;20056;-75
2022/10/25 08:13:46;;;;;;;15.65;8.68;;;19.60;96.70;;;;;;4935439;29;20118;-74
2022/10/25 08:16:14;;;;;;;14.38;9.27;;;19.60;96.70;;;;;;4931691;28;20065;-74
2022/10/25 08:18:42;;;;;;;13.50;9.23;;;19.60;96.70;;;;;;4931374;28;20039;-74
2022/10/25 08:21:11;;;;;;;13.20;8.48;;;19.70;96.70;;;;;;4932060;28;20055;-74
2022/10/25 08:23:43;;;;;;;12.45;9.13;;;19.80;96.70;;;;;;4948179;28;20522;-75
2022/10/25 08:26:11;;;;;;;14.43;8.82;;;19.90;96.70;;;;;;4949369;28;20055;-74
2022/10/25 08:28:41;;;;;;;12.07;7.95;;;20.00;96.70;;;;;;4930467;28;20043;-74
2022/10/25 08:31:09;;;;;;;13.48;8.18;;;20.00;96.70;;;;;;4932287;28;20128;-74
2022/10/25 08:33:37;;;;;;;15.80;8.85;;;20.00;96.70;;;;;;4933769;28;20123;-74
2022/10/25 08:36:06;;;;;;;15.18;7.68;;;20.10;96.70;;;;;;4939450;28;20062;-74
2022/10/25 08:38:35;;;;;;;12.07;7.68;;;20.20;96.70;;;;;;4937950;29;20157;-74
2022/10/25 08:41:13;;;;;;;16.23;8.13;;;20.30;96.70;;;;;;4931748;29;20063;-74
2022/10/25 08:44:17;;;;;;;15.27;9.05;;;20.40;96.70;;;;;;4940560;28;20051;-74
2022/10/25 08:46:54;;;;;;;14.45;8.95;;;20.40;96.70;;;;;;4942553;28;20584;-74
2022/10/25 08:49:27;;;;;;;15.15;8.80;;;20.60;96.70;;;;;;4948092;28;20047;-75
2022/10/25 08:51:57;;;;;;;14.65;8.73;;;20.70;96.70;;;;;;4930851;29;20051;-74
2022/10/25 08:54:28;;;;;;;12.10;8.82;;;20.90;96.70;;;;;;4954028;28;20035;-75
2022/10/25 08:57:05;;;;;;;13.73;8.10;;;20.90;96.70;;;;;;4934087;28;20078;-75
2022/10/25 08:59:47;;;;;;;15.43;8.05;;;21.10;96.70;;;;;;4938786;28;21175;-74
2022/10/25 09:02:34;;;;;;;17.40;8.73;;;21.30;96.70;;;;;;4937922;28;20047;-74
2022/10/25 09:05:03;;;;;;;12.27;8.35;;;21.50;96.70;;;;;;4964448;28;20077;-74
2022/10/25 09:07:54;;;;;;;16.05;8.50;;;21.60;96.70;;;;;;4943748;28;20513;-75
2022/10/25 09:10:32;;;;;;;11.82;8.05;;;21.70;96.70;;;;;;4963555;28;20445;-74
2022/10/25 09:13:08;;;;;;;15.10;8.35;;;21.70;96.70;;;;;;4954398;28;20054;-74
2022/10/25 09:16:08;;;;;;;14.07;8.40;;;21.70;96.70;;;;;;4954832;28;20129;-74
2022/10/25 09:18:56;;;;;;;17.20;8.25;;;21.70;96.70;;;;;;4953213;28;20047;-74
2022/10/25 09:21:36;;;;;;;16.25;8.95;;;21.80;96.70;;;;;;4952423;28;20050;-74
2022/10/25 09:24:12;;;;;;;12.63;7.85;;;21.80;96.70;;;;;;4937710;29;20051;-74
2022/10/25 09:26:41;;;;;;;;;;;21.90;96.70;;;;;;4935558;28;20133;-73
2022/10/25 09:29:19;;;;;;;13.45;7.72;;;22.00;96.70;;;;;;4956221;28;19961;-74
2022/10/25 09:31:50;;;;;;;16.30;8.70;;;22.10;96.70;;;;;;4930421;29;20074;-74
2022/10/25 09:34:22;;;;;;;14.20;8.32;;;22.20;96.70;;;;;;4956901;28;20058;-73
2022/10/25 09:36:56;;;;;;;13.85;8.45;;;22.30;96.70;;;;;;4939850;28;20036;-74
2022/10/25 09:39:32;;;;;;;14.45;7.93;;;22.30;96.70;;;;;;4954320;28;20134;-73
2022/10/25 09:42:02;;;;;;;13.10;7.72;;;22.30;96.70;;;;;;4962234;28;20049;-74
2022/10/25 09:44:37;;;;;;;17.15;7.95;;;22.40;96.70;;;;;;4938137;28;20441;-73
2022/10/25 09:47:20;;;;;;;15.68;8.20;;;22.60;96.70;;;;;;4939723;28;20085;-74
2022/10/25 09:49:55;;;;;;;12.55;8.15;;;22.70;96.70;;;;;;4962204;28;20134;-74
2022/10/25 09:52:30;;;;;;;17.73;8.40;;;22.90;96.70;;;;;;4933970;29;20102;-74
2022/10/25 09:55:15;;;;;;;14.23;7.95;;;23.00;96.70;;;;;;4928979;28;20146;-73
2022/10/25 09:57:45;;;;;;;15.68;8.13;;;23.20;96.70;;;;;;4932673;29;20057;-74
2022/10/25 10:00:14;;;;;;;15.20;7.10;;;23.40;96.70;;;;;;4932044;28;20050;-74
2022/10/25 10:02:42;;;;;;;15.02;7.22;;;23.40;96.70;;;;;;4931030;29;20039;-73
2022/10/25 10:05:17;;;;;;;15.65;7.35;;;23.50;96.70;;;;;;4946560;28;20055;-74
2022/10/25 10:07:46;;;;;;;18.90;6.95;;;23.60;96.70;;;;;;4930454;28;20043;-74
2022/10/25 10:10:17;;;;;;;11.90;6.20;;;23.70;96.70;;;;;;4933072;29;20398;-74
2022/10/25 10:12:51;;;;;;;13.48;6.88;;;23.80;96.70;;;;;;4921976;28;20064;-74
2022/10/25 10:15:24;;;;;;;15.60;6.97;;;23.80;96.70;;;;;;4937368;28;20134;-73
2022/10/25 10:18:24;;;;;;;11.43;6.45;;;23.80;96.70;;;;;;4931909;28;20944;-74
2022/10/25 10:21:07;;;;;;;17.00;6.47;;;23.90;96.70;;;;;;4954641;28;20043;-74
2022/10/25 10:23:43;;;;;;;12.93;6.40;;;23.90;96.70;;;;;;4937481;28;20055;-75
2022/10/25 10:26:13;;;;;;;;;;;23.90;96.70;;;;;;4958835;28;20138;-74
2022/10/25 10:28:45;;;;;;;15.52;6.65;;;24.10;96.70;;;;;;4928537;29;19926;-74
2022/10/25 10:31:13;;;;;;;13.75;6.78;;;24.30;96.70;;;;;;4954818;28;20101;-74
2022/10/25 10:33:47;;;;;;;12.55;6.20;;;24.40;96.70;;;;;;4936363;28;20054;-74
2022/10/25 10:36:26;;;;;;;18.30;6.15;;;24.30;96.70;;;;;;4923764;28;20062;-74
2022/10/25 10:39:12;;;;;;;12.80;5.95;;;24.40;96.70;;;;;;4942020;28;20071;-74
2022/10/25 10:41:59;;;;;;;12.43;5.70;;;24.50;96.70;;;;;;4942949;28;21443;-74
2022/10/25 10:44:29;;;;;;;14.35;5.75;;;24.40;96.70;;;;;;4936098;28;20449;-74
2022/10/25 10:46:57;;;;;;;13.18;5.80;;;24.40;96.70;;;;;;4945531;28;20464;-74
2022/10/25 10:49:33;;;;;;;14.13;6.45;;;24.40;96.70;;;;;;4949017;28;20043;-74
2022/10/25 10:52:03;;;;;;;;;;;24.50;96.70;;;;;;4947551;28;20047;-74
2022/10/25 10:54:34;;;;;;;13.50;5.95;;;24.60;96.70;;;;;;4928395;29;19926;-74
2022/10/25 10:57:04;;;;;;;14.55;5.82;;;24.70;96.70;;;;;;4953025;28;20047;-74
2022/10/25 10:59:39;;;;;;;15.23;6.00;;;24.70;96.70;;;;;;4944842;28;20101;-73
2022/10/25 11:02:33;;;;;;;12.77;6.00;;;24.80;96.70;;;;;;4921720;28;21050;-73
2022/10/25 11:05:02;;;;;;;14.07;5.75;;;24.90;96.70;;;;;;4929025;29;20495;-74
2022/10/25 11:07:33;;;;;;;14.38;5.95;;;24.90;96.70;;;;;;4944639;28;20078;-73
2022/10/25 11:10:23;;;;;;;14.95;6.28;;;24.90;96.70;;;;;;4961644;28;20505;-73
2022/10/25 11:13:19;;;;;;;14.23;6.45;;;24.80;96.70;;;;;;4950031;28;20044;-73
2022/10/25 11:16:25;;;;;;;15.52;6.22;;;24.80;96.70;;;;;;4928927;28;20920;-73
2022/10/25 11:19:13;;;;;;;17.83;6.43;;;24.70;96.70;;;;;;4948900;28;20060;-74
2022/10/25 11:22:09;;;;;;;14.88;6.22;;;24.50;96.70;;;;;;4947564;28;20043;-73
2022/10/25 11:24:52;;;;;;;18.10;6.90;;;24.30;96.70;;;;;;4956770;28;20047;-73
2022/10/25 11:27:29;;;;;;;13.88;5.80;;;24.30;96.70;;;;;;4953212;28;20047;-73
2022/10/25 11:30:13;;;;;;;11.77;5.57;;;24.30;96.70;;;;;;4945997;28;20117;-73
2022/10/25 11:33:20;;;;;;;14.07;6.28;;;24.30;96.70;;;;;;4915655;28;20055;-73
2022/10/25 11:36:10;;;;;;;12.18;6.25;;;24.30;96.70;;;;;;4945097;28;20489;-73
2022/10/25 11:38:51;;;;;;;9.48;5.97;;;24.40;96.70;;;;;;4943639;28;20063;-73
2022/10/25 11:41:33;;;;;;;17.50;6.72;;;24.40;96.70;;;;;;4927780;29;20445;-74
2022/10/25 11:44:29;;;;;;;16.42;6.07;;;24.40;96.70;;;;;;4927357;28;20161;-73
2022/10/25 11:47:06;;;;;;;15.85;5.65;;;24.40;96.70;;;;;;4938146;28;20762;-73
2022/10/25 11:50:10;;;;;;;21.50;6.25;;;24.30;96.70;;;;;;4931713;28;20670;-73
2022/10/25 11:53:15;;;;;;;15.55;6.20;;;24.20;96.70;;;;;;4938806;28;20059;-73
2022/10/25 11:55:48;;;;;;;12.20;5.82;;;24.20;96.70;;;;;;4919387;28;20456;-73
2022/10/25 11:58:32;;;;;;;20.80;6.80;;;24.20;96.70;;;;;;4936760;29;20049;-73
2022/10/25 12:01:13;;;;;;;13.23;6.05;;;24.30;96.70;;;;;;4939930;28;20130;-73
2022/10/25 12:03:58;;;;;;;13.90;6.38;;;24.60;96.70;;;;;;4946713;28;20055;-73
2022/10/25 12:06:36;;;;;;;14.30;6.22;;;24.60;96.70;;;;;;4942381;28;20105;-73
2022/10/25 12:09:10;;;;;;;12.05;5.88;;;24.60;96.70;;;;;;4953936;28;20552;-73
2022/10/25 12:11:44;;;;;;;21.35;6.10;;;24.70;96.70;;;;;;4931812;28;20062;-73
2022/10/25 12:14:18;;;;;;;15.07;6.78;;;24.80;96.70;;;;;;4945891;29;20147;-73
2022/10/25 12:16:47;;;;;;;15.50;5.47;;;24.90;96.70;;;;;;4936929;28;20062;-74
2022/10/25 12:19:21;;;;;;;14.43;6.03;;;25.00;96.70;;;;;;4962649;28;20051;-74
2022/10/25 12:21:53;;;;;;;18.55;6.97;;;25.00;96.70;;;;;;4932870;28;20527;-75
2022/10/25 12:24:33;;;;;;;13.25;5.32;;;25.00;96.70;;;;;;4934498;28;20047;-75
2022/10/25 12:27:01;;;;;;;11.35;4.78;;;25.00;96.70;;;;;;4932114;28;20054;-74
2022/10/25 12:29:35;;;;;;;16.65;6.00;;;25.00;96.70;;;;;;4931268;28;20047;-74
2022/10/25 12:32:10;;;;;;;12.82;5.43;;;25.20;96.70;;;;;;4949320;28;20051;-74
2022/10/25 12:34:42;;;;;;;16.00;6.00;;;25.20;96.70;;;;;;4930294;29;20150;-75
2022/10/25 12:37:18;;;;;;;16.38;6.40;;;25.10;96.70;;;;;;4947154;28;20286;-75
2022/10/25 12:39:46;;;;;;;14.68;5.65;;;25.00;96.70;;;;;;4942205;28;20506;-75
2022/10/25 12:42:19;;;;;;;18.65;6.18;;;25.00;96.70;;;;;;4929267;28;20067;-75
2022/10/25 12:45:25;;;;;;;11.35;5.70;;;25.00;96.70;;;;;;4935350;29;20102;-74
2022/10/25 12:48:07;;;;;;;13.40;5.57;;;25.30;96.70;;;;;;4925796;29;20040;-75
2022/10/25 12:50:56;;;;;;;10.65;5.40;;;25.60;96.70;;;;;;4944024;29;20055;-75
2022/10/25 12:53:57;;;;;;;13.85;5.80;;;25.70;96.70;;;;;;4934429;28;20053;-76
2022/10/25 12:56:40;;;;;;;14.13;5.20;;;25.90;96.70;;;;;;4927184;29;21006;-75
2022/10/25 12:59:19;;;;;;;13.20;5.30;;;26.10;96.70;;;;;;4925919;29;20145;-75
2022/10/25 13:02:07;;;;;;;14.27;5.60;;;26.00;96.70;;;;;;4936432;28;20043;-75
2022/10/25 13:05:01;;;;;;;17.27;6.03;;;26.00;96.70;;;;;;4929488;29;20054;-75
2022/10/25 13:07:30;;;;;;;17.58;6.07;;;26.10;96.70;;;;;;4931094;28;20402;-75
2022/10/25 13:10:04;;;;;;;14.93;5.82;;;26.20;96.70;;;;;;4923794;29;20058;-75
2022/10/25 13:12:32;;;;;;;20.17;5.32;;;26.10;96.70;;;;;;4923135;29;20750;-75